【JGC回数修行】目指せ亀タグ☆FIVE STAR 1250回!!

楽しみにしている回数修行旅行記のブログが少なかったので、自分で実体験して、皆にシェアしようと。そして、JGC 亀タグ&FIVE STAR獲得のための 搭乗1250回の記録

【BA修行#008】20200108_JTA600 ISG-OKA

2020年1月8日水曜日

- JTA600 石垣-那覇

- BA紐付け対象便(チェックインカウンターで、クラスJにアップグレード⤴️をしてもらい、その後にBAへ紐付けをお願いすること。)

--------------------------------------

f:id:ozc1250tokyo:20200120213655j:image

無事に、BAのティアポイントが付与されました❣️

--------------------------------------

話は、石垣空港到着時からです。

意外に乗り継ぎ時間がないのには、びっくり。トイレに立ち寄り、スタバ前の場所で、スマホ📱充電しようと考えていたのですが…すぐに出発20分前になってしまいました😅
f:id:ozc1250tokyo:20200108084535j:image
クラスJを確保出来たので、紐付けをBAに変更をお願いしました。これでうまくいけば、T/P(ティアポイント)が40ポイント獲得です。


f:id:ozc1250tokyo:20200108090039j:image

f:id:ozc1250tokyo:20200108090045j:image

まちろん、帰りもJTAの737-800の「8号機」です。この8号機のWi-Fiとの自分のスマホとの相性は良くて、すぐにサクサク繋がります。ストレスフリーです笑笑
f:id:ozc1250tokyo:20200108090105j:image

ではゲートから搭乗します❗️


f:id:ozc1250tokyo:20200108090150j:image

f:id:ozc1250tokyo:20200108090143j:image

f:id:ozc1250tokyo:20200108090139j:image

お見送り準備中です。石垣島のスタッフは優しいです。しかも、サクラジンベエと青ジンベエの車両も両端に準備し、さすがです❗️❗️

f:id:ozc1250tokyo:20200108090415j:image

みーふぁーゆ、毎回ありがとうございます😊


f:id:ozc1250tokyo:20200108090312j:image

f:id:ozc1250tokyo:20200108090303j:image

離陸🛫です。晴れ間も出ています!

実況値確認です。

METAR

01/08 09:00 ROIG 080000Z 31003KT 9999 FEW015 FEW020TCU SCT040 22/21 Q1020 RMK 1CU015 1TCU020 4SC040 A3013 TCU NW=

雲が増えた気がします。

f:id:ozc1250tokyo:20200108090735j:image

機内照明は青色!この色も良い感じです😊


f:id:ozc1250tokyo:20200108091036j:image

f:id:ozc1250tokyo:20200108091040j:image

f:id:ozc1250tokyo:20200108091031j:image

f:id:ozc1250tokyo:20200108091046j:image

飛行機✈️は、どんどん上昇しますが、雲の絨毯、雲海は切れ間がありません。
f:id:ozc1250tokyo:20200108091857j:image

沖縄の東にある前線の影響による雲が残っているのかな、、これだけでは何とも言えませんが…😅

f:id:ozc1250tokyo:20200108092051j:image

こちらの紹介ビデオのキャラクターいいですねー、味が出ています😊
f:id:ozc1250tokyo:20200108092056j:image

琉球風味を取り入れているようです。

流石に、疲れが出てきて、ウトウトしてしまいました。


f:id:ozc1250tokyo:20200108093556j:image

f:id:ozc1250tokyo:20200108093602p:image

高度5000FTくらいですけ、雲の中です。


f:id:ozc1250tokyo:20200108093803j:image

f:id:ozc1250tokyo:20200108093808j:image

高度3000FTくらいで少し雲に隙間が出てきました。


f:id:ozc1250tokyo:20200108094528j:image

f:id:ozc1250tokyo:20200108094519j:image

f:id:ozc1250tokyo:20200108094524j:image

高度1500FTくらいでは、雲量ほ少なくなってきました。


f:id:ozc1250tokyo:20200108094728j:image

f:id:ozc1250tokyo:20200108094722j:image

着陸です。朝より天気が悪くなっているみたいです😅

f:id:ozc1250tokyo:20200108094922j:image

実況値確認です。

METAR

01/08 09:30 ROAH 080030Z 35023KT 9999 FEW013 BKN020 BKN035 20/17 Q1021 RMK 2CU013 6CU020 7SC035 A3015=

かなり下層まで分厚い雲が広がりつつあるようです。

機内放送によると、沖縄では早くも、緋寒桜が開花したそうです。

以上